sensor_id;sensor_type;location;lat;lon;timestamp;P1;durP1;ratioP1;P2;durP2;ratioP2
74421;SDS011;62856;51.446;8.360;2023-09-08T00:00:44;8.95;;;3.17;;
74421;SDS011;62856;51.446;8.360;2023-09-08T00:03:09;7.20;;;2.80;;
74421;SDS011;62856;51.446;8.360;2023-09-08T00:05:34;6.55;;;3.13;;
74421;SDS011;62856;51.446;8.360;2023-09-08T00:08:00;7.88;;;2.85;;
74421;SDS011;62856;51.446;8.360;2023-09-08T00:10:25;6.25;;;2.45;;
74421;SDS011;62856;51.446;8.360;2023-09-08T00:12:50;7.63;;;3.20;;
74421;SDS011;62856;51.446;8.360;2023-09-08T00:15:16;6.68;;;2.85;;
74421;SDS011;62856;51.446;8.360;2023-09-08T00:17:41;7.07;;;2.97;;
74421;SDS011;62856;51.446;8.360;2023-09-08T00:20:07;7.03;;;2.60;;
74421;SDS011;62856;51.446;8.360;2023-09-08T00:22:33;7.50;;;2.92;;
74421;SDS011;62856;51.446;8.360;2023-09-08T00:24:59;6.47;;;2.70;;
74421;SDS011;62856;51.446;8.360;2023-09-08T00:27:24;7.85;;;3.08;;
74421;SDS011;62856;51.446;8.360;2023-09-08T00:29:49;7.87;;;2.80;;
74421;SDS011;62856;51.446;8.360;2023-09-08T00:32:15;7.30;;;2.60;;
74421;SDS011;62856;51.446;8.360;2023-09-08T00:34:40;6.55;;;2.50;;
74421;SDS011;62856;51.446;8.360;2023-09-08T00:37:06;7.68;;;3.00;;
74421;SDS011;62856;51.446;8.360;2023-09-08T00:39:34;7.70;;;2.85;;
74421;SDS011;62856;51.446;8.360;2023-09-08T00:42:00;8.20;;;3.17;;
74421;SDS011;62856;51.446;8.360;2023-09-08T00:44:25;7.70;;;2.90;;
74421;SDS011;62856;51.446;8.360;2023-09-08T00:46:50;7.05;;;3.17;;
74421;SDS011;62856;51.446;8.360;2023-09-08T00:49:15;6.10;;;2.47;;
74421;SDS011;62856;51.446;8.360;2023-09-08T00:51:41;6.28;;;2.65;;
74421;SDS011;62856;51.446;8.360;2023-09-08T00:54:07;6.85;;;2.67;;
74421;SDS011;62856;51.446;8.360;2023-09-08T00:56:33;6.28;;;2.65;;
74421;SDS011;62856;51.446;8.360;2023-09-08T01:01:27;6.10;;;2.42;;
74421;SDS011;62856;51.446;8.360;2023-09-08T01:03:52;8.00;;;2.75;;
74421;SDS011;62856;51.446;8.360;2023-09-08T01:06:18;7.05;;;2.83;;
74421;SDS011;62856;51.446;8.360;2023-09-08T01:08:43;7.78;;;2.95;;
74421;SDS011;62856;51.446;8.360;2023-09-08T01:11:09;6.72;;;3.03;;
74421;SDS011;62856;51.446;8.360;2023-09-08T01:13:34;6.63;;;2.33;;
74421;SDS011;62856;51.446;8.360;2023-09-08T01:16:00;7.27;;;2.40;;
74421;SDS011;62856;51.446;8.360;2023-09-08T01:18:26;6.47;;;2.40;;
74421;SDS011;62856;51.446;8.360;2023-09-08T01:26:43;6.68;;;2.67;;
74421;SDS011;62856;51.446;8.360;2023-09-08T01:29:09;6.50;;;2.80;;
74421;SDS011;62856;51.446;8.360;2023-09-08T01:31:36;7.50;;;2.63;;
74421;SDS011;62856;51.446;8.360;2023-09-08T01:34:02;8.23;;;2.45;;
74421;SDS011;62856;51.446;8.360;2023-09-08T01:36:31;7.82;;;2.47;;
74421;SDS011;62856;51.446;8.360;2023-09-08T01:39:00;6.53;;;2.53;;
74421;SDS011;62856;51.446;8.360;2023-09-08T01:41:26;8.27;;;2.47;;
74421;SDS011;62856;51.446;8.360;2023-09-08T01:43:52;6.15;;;2.47;;
74421;SDS011;62856;51.446;8.360;2023-09-08T01:46:17;6.93;;;2.58;;
74421;SDS011;62856;51.446;8.360;2023-09-08T01:48:42;7.43;;;2.45;;
74421;SDS011;62856;51.446;8.360;2023-09-08T01:51:08;6.65;;;2.60;;
74421;SDS011;62856;51.446;8.360;2023-09-08T01:53:33;7.25;;;2.28;;
74421;SDS011;62856;51.446;8.360;2023-09-08T01:55:59;8.00;;;2.58;;
74421;SDS011;62856;51.446;8.360;2023-09-08T01:58:24;7.35;;;2.50;;
74421;SDS011;62856;51.446;8.360;2023-09-08T02:00:50;7.75;;;2.72;;
74421;SDS011;62856;51.446;8.360;2023-09-08T02:03:16;6.32;;;2.55;;
74421;SDS011;62856;51.446;8.360;2023-09-08T02:05:41;8.32;;;2.45;;
74421;SDS011;62856;51.446;8.360;2023-09-08T02:08:07;6.45;;;2.63;;
74421;SDS011;62856;51.446;8.360;2023-09-08T02:10:32;7.75;;;2.83;;
74421;SDS011;62856;51.446;8.360;2023-09-08T02:12:57;7.50;;;2.60;;
74421;SDS011;62856;51.446;8.360;2023-09-08T02:15:23;11.30;;;3.03;;
74421;SDS011;62856;51.446;8.360;2023-09-08T02:17:52;7.07;;;2.40;;
74421;SDS011;62856;51.446;8.360;2023-09-08T02:20:19;8.10;;;2.58;;
74421;SDS011;62856;51.446;8.360;2023-09-08T02:22:45;6.20;;;2.50;;
74421;SDS011;62856;51.446;8.360;2023-09-08T02:25:12;6.28;;;2.20;;
74421;SDS011;62856;51.446;8.360;2023-09-08T02:27:38;6.68;;;2.63;;
74421;SDS011;62856;51.446;8.360;2023-09-08T02:30:04;6.87;;;2.50;;
74421;SDS011;62856;51.446;8.360;2023-09-08T02:32:30;6.22;;;2.50;;
74421;SDS011;62856;51.446;8.360;2023-09-08T02:34:55;6.15;;;2.40;;
74421;SDS011;62856;51.446;8.360;2023-09-08T02:37:20;8.10;;;2.72;;
74421;SDS011;62856;51.446;8.360;2023-09-08T02:39:46;7.43;;;2.88;;
74421;SDS011;62856;51.446;8.360;2023-09-08T02:42:11;6.88;;;2.47;;
74421;SDS011;62856;51.446;8.360;2023-09-08T02:44:36;7.00;;;2.95;;
74421;SDS011;62856;51.446;8.360;2023-09-08T02:47:02;6.72;;;2.72;;
74421;SDS011;62856;51.446;8.360;2023-09-08T02:49:27;7.18;;;2.70;;
74421;SDS011;62856;51.446;8.360;2023-09-08T02:51:52;6.53;;;2.60;;
74421;SDS011;62856;51.446;8.360;2023-09-08T02:54:21;7.43;;;2.70;;
74421;SDS011;62856;51.446;8.360;2023-09-08T02:56:46;7.53;;;2.67;;
74421;SDS011;62856;51.446;8.360;2023-09-08T02:59:11;7.20;;;2.47;;
74421;SDS011;62856;51.446;8.360;2023-09-08T03:01:36;6.28;;;2.22;;
74421;SDS011;62856;51.446;8.360;2023-09-08T03:04:02;7.38;;;2.60;;
74421;SDS011;62856;51.446;8.360;2023-09-08T03:06:27;7.18;;;2.58;;
74421;SDS011;62856;51.446;8.360;2023-09-08T03:08:53;9.73;;;2.90;;
74421;SDS011;62856;51.446;8.360;2023-09-08T03:11:18;7.47;;;2.40;;
74421;SDS011;62856;51.446;8.360;2023-09-08T03:13:43;6.40;;;2.50;;
74421;SDS011;62856;51.446;8.360;2023-09-08T03:16:09;7.28;;;2.70;;
74421;SDS011;62856;51.446;8.360;2023-09-08T03:18:35;7.18;;;2.70;;
74421;SDS011;62856;51.446;8.360;2023-09-08T03:21:05;9.13;;;2.58;;
74421;SDS011;62856;51.446;8.360;2023-09-08T03:23:41;6.55;;;2.70;;
74421;SDS011;62856;51.446;8.360;2023-09-08T03:26:07;7.55;;;2.97;;
74421;SDS011;62856;51.446;8.360;2023-09-08T03:28:34;6.25;;;2.40;;
74421;SDS011;62856;51.446;8.360;2023-09-08T03:31:00;6.72;;;2.42;;
74421;SDS011;62856;51.446;8.360;2023-09-08T03:33:26;7.07;;;2.70;;
74421;SDS011;62856;51.446;8.360;2023-09-08T03:35:52;5.85;;;2.30;;
74421;SDS011;62856;51.446;8.360;2023-09-08T03:38:17;6.20;;;2.53;;
74421;SDS011;62856;51.446;8.360;2023-09-08T03:40:43;11.93;;;2.85;;
74421;SDS011;62856;51.446;8.360;2023-09-08T03:43:08;6.88;;;2.28;;
74421;SDS011;62856;51.446;8.360;2023-09-08T03:45:33;9.45;;;2.38;;
74421;SDS011;62856;51.446;8.360;2023-09-08T03:47:59;6.78;;;2.83;;
74421;SDS011;62856;51.446;8.360;2023-09-08T03:50:24;6.50;;;2.30;;
74421;SDS011;62856;51.446;8.360;2023-09-08T03:52:49;6.18;;;2.42;;
74421;SDS011;62856;51.446;8.360;2023-09-08T03:55:15;7.05;;;2.42;;
74421;SDS011;62856;51.446;8.360;2023-09-08T03:57:42;6.53;;;2.30;;
74421;SDS011;62856;51.446;8.360;2023-09-08T04:00:07;7.10;;;2.70;;
74421;SDS011;62856;51.446;8.360;2023-09-08T04:02:35;7.35;;;2.65;;
74421;SDS011;62856;51.446;8.360;2023-09-08T04:05:00;7.55;;;3.17;;
74421;SDS011;62856;51.446;8.360;2023-09-08T04:07:26;9.07;;;2.63;;
74421;SDS011;62856;51.446;8.360;2023-09-08T04:09:51;6.43;;;2.50;;
74421;SDS011;62856;51.446;8.360;2023-09-08T04:12:16;7.68;;;2.95;;
74421;SDS011;62856;51.446;8.360;2023-09-08T04:14:42;6.95;;;2.72;;
74421;SDS011;62856;51.446;8.360;2023-09-08T04:17:07;7.55;;;2.25;;
74421;SDS011;62856;51.446;8.360;2023-09-08T04:19:33;6.70;;;2.60;;
74421;SDS011;62856;51.446;8.360;2023-09-08T04:21:58;6.40;;;2.42;;
74421;SDS011;62856;51.446;8.360;2023-09-08T04:24:23;7.20;;;2.75;;
74421;SDS011;62856;51.446;8.360;2023-09-08T04:26:49;7.57;;;2.63;;
74421;SDS011;62856;51.446;8.360;2023-09-08T04:29:14;7.25;;;2.80;;
74421;SDS011;62856;51.446;8.360;2023-09-08T04:31:39;7.63;;;3.10;;
74421;SDS011;62856;51.446;8.360;2023-09-08T04:34:05;6.85;;;2.70;;
74421;SDS011;62856;51.446;8.360;2023-09-08T04:36:30;7.55;;;2.58;;
74421;SDS011;62856;51.446;8.360;2023-09-08T04:38:56;9.73;;;2.92;;
74421;SDS011;62856;51.446;8.360;2023-09-08T04:41:21;8.70;;;3.30;;
74421;SDS011;62856;51.446;8.360;2023-09-08T04:43:47;9.73;;;3.55;;
74421;SDS011;62856;51.446;8.360;2023-09-08T04:46:12;7.43;;;2.50;;
74421;SDS011;62856;51.446;8.360;2023-09-08T04:48:37;9.20;;;3.15;;
74421;SDS011;62856;51.446;8.360;2023-09-08T04:51:03;7.47;;;3.20;;
74421;SDS011;62856;51.446;8.360;2023-09-08T04:53:28;8.50;;;3.22;;
74421;SDS011;62856;51.446;8.360;2023-09-08T04:55:53;9.23;;;2.67;;
74421;SDS011;62856;51.446;8.360;2023-09-08T04:58:19;7.07;;;2.47;;
74421;SDS011;62856;51.446;8.360;2023-09-08T05:00:44;9.70;;;2.78;;
74421;SDS011;62856;51.446;8.360;2023-09-08T05:03:10;9.07;;;2.92;;
74421;SDS011;62856;51.446;8.360;2023-09-08T05:05:35;9.15;;;3.10;;
74421;SDS011;62856;51.446;8.360;2023-09-08T05:08:00;7.32;;;2.90;;
74421;SDS011;62856;51.446;8.360;2023-09-08T05:10:26;6.55;;;2.70;;
74421;SDS011;62856;51.446;8.360;2023-09-08T05:12:51;7.30;;;2.50;;
74421;SDS011;62856;51.446;8.360;2023-09-08T05:15:17;7.53;;;2.67;;
74421;SDS011;62856;51.446;8.360;2023-09-08T05:17:45;7.07;;;2.97;;
74421;SDS011;62856;51.446;8.360;2023-09-08T05:20:11;9.05;;;2.50;;
74421;SDS011;62856;51.446;8.360;2023-09-08T05:22:36;7.35;;;3.00;;
74421;SDS011;62856;51.446;8.360;2023-09-08T05:25:02;8.77;;;2.97;;
74421;SDS011;62856;51.446;8.360;2023-09-08T05:27:28;6.88;;;2.30;;
74421;SDS011;62856;51.446;8.360;2023-09-08T05:29:53;8.82;;;2.85;;
74421;SDS011;62856;51.446;8.360;2023-09-08T05:32:18;8.93;;;2.70;;
74421;SDS011;62856;51.446;8.360;2023-09-08T05:34:44;9.45;;;2.75;;
74421;SDS011;62856;51.446;8.360;2023-09-08T05:37:09;7.43;;;2.30;;
74421;SDS011;62856;51.446;8.360;2023-09-08T05:39:34;9.23;;;3.08;;
74421;SDS011;62856;51.446;8.360;2023-09-08T05:41:59;10.20;;;2.80;;
74421;SDS011;62856;51.446;8.360;2023-09-08T05:44:25;8.73;;;2.83;;
74421;SDS011;62856;51.446;8.360;2023-09-08T05:46:50;9.32;;;3.50;;
74421;SDS011;62856;51.446;8.360;2023-09-08T05:49:16;7.40;;;2.75;;
74421;SDS011;62856;51.446;8.360;2023-09-08T05:51:42;7.78;;;3.08;;
74421;SDS011;62856;51.446;8.360;2023-09-08T05:54:08;9.55;;;3.03;;
74421;SDS011;62856;51.446;8.360;2023-09-08T05:56:33;7.35;;;2.90;;
74421;SDS011;62856;51.446;8.360;2023-09-08T05:58:59;9.15;;;2.58;;
74421;SDS011;62856;51.446;8.360;2023-09-08T06:01:26;8.10;;;2.80;;
74421;SDS011;62856;51.446;8.360;2023-09-08T06:03:51;9.32;;;2.58;;
74421;SDS011;62856;51.446;8.360;2023-09-08T06:06:17;8.10;;;3.30;;
74421;SDS011;62856;51.446;8.360;2023-09-08T06:08:42;13.33;;;3.00;;
74421;SDS011;62856;51.446;8.360;2023-09-08T06:11:07;8.90;;;2.90;;
74421;SDS011;62856;51.446;8.360;2023-09-08T06:13:33;7.72;;;2.90;;
74421;SDS011;62856;51.446;8.360;2023-09-08T06:15:58;8.25;;;3.00;;
74421;SDS011;62856;51.446;8.360;2023-09-08T06:18:23;9.18;;;2.90;;
74421;SDS011;62856;51.446;8.360;2023-09-08T06:20:49;12.35;;;4.18;;
74421;SDS011;62856;51.446;8.360;2023-09-08T06:23:14;10.18;;;2.60;;
74421;SDS011;62856;51.446;8.360;2023-09-08T06:25:40;9.45;;;2.97;;
74421;SDS011;62856;51.446;8.360;2023-09-08T06:28:06;7.30;;;2.83;;
74421;SDS011;62856;51.446;8.360;2023-09-08T06:30:31;7.20;;;2.50;;
74421;SDS011;62856;51.446;8.360;2023-09-08T06:32:56;7.88;;;3.10;;
74421;SDS011;62856;51.446;8.360;2023-09-08T06:35:22;7.88;;;2.38;;
74421;SDS011;62856;51.446;8.360;2023-09-08T06:37:47;9.83;;;2.90;;
74421;SDS011;62856;51.446;8.360;2023-09-08T06:40:12;10.07;;;3.08;;
74421;SDS011;62856;51.446;8.360;2023-09-08T06:42:38;10.95;;;2.60;;
74421;SDS011;62856;51.446;8.360;2023-09-08T06:45:03;11.52;;;2.63;;
74421;SDS011;62856;51.446;8.360;2023-09-08T06:47:29;10.85;;;3.42;;
74421;SDS011;62856;51.446;8.360;2023-09-08T06:49:57;8.18;;;2.85;;
74421;SDS011;62856;51.446;8.360;2023-09-08T06:52:22;7.67;;;2.67;;
74421;SDS011;62856;51.446;8.360;2023-09-08T06:54:48;8.82;;;2.72;;
74421;SDS011;62856;51.446;8.360;2023-09-08T06:57:13;11.68;;;3.03;;
74421;SDS011;62856;51.446;8.360;2023-09-08T06:59:38;11.23;;;2.80;;
74421;SDS011;62856;51.446;8.360;2023-09-08T07:02:04;8.20;;;2.60;;
74421;SDS011;62856;51.446;8.360;2023-09-08T07:04:29;12.82;;;2.90;;
74421;SDS011;62856;51.446;8.360;2023-09-08T07:06:55;7.45;;;2.65;;
74421;SDS011;62856;51.446;8.360;2023-09-08T07:09:21;10.10;;;3.03;;
74421;SDS011;62856;51.446;8.360;2023-09-08T07:11:46;12.00;;;3.08;;
74421;SDS011;62856;51.446;8.360;2023-09-08T07:14:12;9.48;;;3.90;;
74421;SDS011;62856;51.446;8.360;2023-09-08T07:16:37;48.67;;;12.63;;
74421;SDS011;62856;51.446;8.360;2023-09-08T07:19:02;20.65;;;7.88;;
74421;SDS011;62856;51.446;8.360;2023-09-08T07:21:28;16.55;;;5.10;;
74421;SDS011;62856;51.446;8.360;2023-09-08T07:23:53;13.82;;;5.50;;
74421;SDS011;62856;51.446;8.360;2023-09-08T07:26:19;17.38;;;4.18;;
74421;SDS011;62856;51.446;8.360;2023-09-08T07:28:44;12.65;;;3.65;;
74421;SDS011;62856;51.446;8.360;2023-09-08T07:31:10;12.95;;;3.83;;
74421;SDS011;62856;51.446;8.360;2023-09-08T07:33:35;13.38;;;3.88;;
74421;SDS011;62856;51.446;8.360;2023-09-08T07:36:07;12.60;;;3.50;;
74421;SDS011;62856;51.446;8.360;2023-09-08T07:38:33;11.05;;;3.65;;
74421;SDS011;62856;51.446;8.360;2023-09-08T07:41:02;10.25;;;3.60;;
74421;SDS011;62856;51.446;8.360;2023-09-08T07:43:27;10.60;;;3.33;;
74421;SDS011;62856;51.446;8.360;2023-09-08T07:45:53;13.80;;;3.72;;
74421;SDS011;62856;51.446;8.360;2023-09-08T07:48:19;12.77;;;4.40;;
74421;SDS011;62856;51.446;8.360;2023-09-08T07:50:44;12.10;;;3.63;;
74421;SDS011;62856;51.446;8.360;2023-09-08T07:53:09;13.40;;;3.72;;
74421;SDS011;62856;51.446;8.360;2023-09-08T07:55:35;11.35;;;4.10;;
74421;SDS011;62856;51.446;8.360;2023-09-08T07:58:01;11.05;;;4.28;;
74421;SDS011;62856;51.446;8.360;2023-09-08T08:00:28;12.05;;;3.83;;
74421;SDS011;62856;51.446;8.360;2023-09-08T08:02:54;15.82;;;3.90;;
74421;SDS011;62856;51.446;8.360;2023-09-08T08:05:20;14.75;;;3.88;;
74421;SDS011;62856;51.446;8.360;2023-09-08T08:07:46;11.32;;;3.72;;
74421;SDS011;62856;51.446;8.360;2023-09-08T08:10:12;12.48;;;3.17;;
74421;SDS011;62856;51.446;8.360;2023-09-08T08:12:38;9.18;;;3.35;;
74421;SDS011;62856;51.446;8.360;2023-09-08T08:15:04;11.95;;;3.78;;
74421;SDS011;62856;51.446;8.360;2023-09-08T08:17:30;9.13;;;3.28;;
74421;SDS011;62856;51.446;8.360;2023-09-08T08:19:56;10.93;;;3.45;;
74421;SDS011;62856;51.446;8.360;2023-09-08T08:22:23;12.32;;;3.80;;
74421;SDS011;62856;51.446;8.360;2023-09-08T08:24:50;9.60;;;3.10;;
74421;SDS011;62856;51.446;8.360;2023-09-08T08:27:15;11.05;;;3.45;;
74421;SDS011;62856;51.446;8.360;2023-09-08T08:29:40;9.07;;;3.75;;
74421;SDS011;62856;51.446;8.360;2023-09-08T08:32:06;10.88;;;3.65;;
74421;SDS011;62856;51.446;8.360;2023-09-08T08:34:31;11.82;;;3.53;;
74421;SDS011;62856;51.446;8.360;2023-09-08T08:36:57;9.38;;;3.25;;
74421;SDS011;62856;51.446;8.360;2023-09-08T08:39:22;8.77;;;3.92;;
74421;SDS011;62856;51.446;8.360;2023-09-08T08:41:48;9.07;;;3.80;;
74421;SDS011;62856;51.446;8.360;2023-09-08T08:44:13;12.32;;;3.63;;
74421;SDS011;62856;51.446;8.360;2023-09-08T08:46:42;10.02;;;3.92;;
74421;SDS011;62856;51.446;8.360;2023-09-08T08:51:36;9.73;;;3.78;;
74421;SDS011;62856;51.446;8.360;2023-09-08T08:54:03;9.13;;;3.97;;
74421;SDS011;62856;51.446;8.360;2023-09-08T08:56:29;8.75;;;3.45;;
74421;SDS011;62856;51.446;8.360;2023-09-08T08:59:01;8.98;;;3.55;;
74421;SDS011;62856;51.446;8.360;2023-09-08T09:01:26;7.47;;;3.35;;
74421;SDS011;62856;51.446;8.360;2023-09-08T09:03:53;8.05;;;3.80;;
74421;SDS011;62856;51.446;8.360;2023-09-08T09:06:20;7.85;;;3.08;;
74421;SDS011;62856;51.446;8.360;2023-09-08T09:08:45;8.10;;;3.15;;
74421;SDS011;62856;51.446;8.360;2023-09-08T09:11:12;10.57;;;3.63;;
74421;SDS011;62856;51.446;8.360;2023-09-08T09:13:37;8.18;;;3.25;;
74421;SDS011;62856;51.446;8.360;2023-09-08T09:16:03;8.70;;;3.45;;
74421;SDS011;62856;51.446;8.360;2023-09-08T09:18:29;8.00;;;3.25;;
74421;SDS011;62856;51.446;8.360;2023-09-08T09:20:59;8.23;;;3.28;;
74421;SDS011;62856;51.446;8.360;2023-09-08T09:23:32;8.65;;;3.30;;
74421;SDS011;62856;51.446;8.360;2023-09-08T09:25:59;7.40;;;2.88;;
74421;SDS011;62856;51.446;8.360;2023-09-08T09:28:27;7.32;;;3.17;;
74421;SDS011;62856;51.446;8.360;2023-09-08T09:30:53;9.07;;;3.25;;
74421;SDS011;62856;51.446;8.360;2023-09-08T09:33:19;7.50;;;2.97;;
74421;SDS011;62856;51.446;8.360;2023-09-08T09:38:15;8.52;;;3.45;;
74421;SDS011;62856;51.446;8.360;2023-09-08T09:40:43;8.90;;;2.85;;
74421;SDS011;62856;51.446;8.360;2023-09-08T09:43:09;8.57;;;3.22;;
74421;SDS011;62856;51.446;8.360;2023-09-08T09:45:36;8.48;;;3.17;;
74421;SDS011;62856;51.446;8.360;2023-09-08T09:48:03;6.90;;;2.60;;
74421;SDS011;62856;51.446;8.360;2023-09-08T09:50:31;8.13;;;3.00;;
74421;SDS011;62856;51.446;8.360;2023-09-08T09:52:58;7.25;;;2.90;;
74421;SDS011;62856;51.446;8.360;2023-09-08T09:55:25;6.70;;;2.72;;
74421;SDS011;62856;51.446;8.360;2023-09-08T09:57:53;7.20;;;3.45;;
74421;SDS011;62856;51.446;8.360;2023-09-08T10:00:23;8.02;;;3.10;;
74421;SDS011;62856;51.446;8.360;2023-09-08T10:02:53;8.75;;;3.30;;
74421;SDS011;62856;51.446;8.360;2023-09-08T10:05:19;9.93;;;2.90;;
74421;SDS011;62856;51.446;8.360;2023-09-08T10:07:46;8.20;;;3.38;;
74421;SDS011;62856;51.446;8.360;2023-09-08T10:10:12;8.18;;;2.90;;
74421;SDS011;62856;51.446;8.360;2023-09-08T10:12:38;6.38;;;2.72;;
74421;SDS011;62856;51.446;8.360;2023-09-08T10:15:05;11.73;;;3.03;;
74421;SDS011;62856;51.446;8.360;2023-09-08T10:17:31;8.90;;;3.10;;
74421;SDS011;62856;51.446;8.360;2023-09-08T10:20:00;7.78;;;3.03;;
74421;SDS011;62856;51.446;8.360;2023-09-08T10:22:30;6.90;;;3.10;;
74421;SDS011;62856;51.446;8.360;2023-09-08T10:24:57;6.35;;;2.50;;
74421;SDS011;62856;51.446;8.360;2023-09-08T10:27:30;7.30;;;3.05;;
74421;SDS011;62856;51.446;8.360;2023-09-08T10:29:57;6.97;;;3.30;;
74421;SDS011;62856;51.446;8.360;2023-09-08T10:32:32;7.47;;;3.15;;
74421;SDS011;62856;51.446;8.360;2023-09-08T10:35:00;7.50;;;3.30;;
74421;SDS011;62856;51.446;8.360;2023-09-08T10:39:54;7.57;;;2.90;;
74421;SDS011;62856;51.446;8.360;2023-09-08T10:42:24;7.00;;;3.22;;
74421;SDS011;62856;51.446;8.360;2023-09-08T10:44:55;8.07;;;3.13;;
74421;SDS011;62856;51.446;8.360;2023-09-08T10:47:25;8.23;;;3.20;;
74421;SDS011;62856;51.446;8.360;2023-09-08T10:49:55;7.60;;;2.88;;
74421;SDS011;62856;51.446;8.360;2023-09-08T10:52:22;7.50;;;3.20;;
74421;SDS011;62856;51.446;8.360;2023-09-08T10:54:49;8.57;;;2.95;;
74421;SDS011;62856;51.446;8.360;2023-09-08T10:57:21;7.75;;;2.95;;
74421;SDS011;62856;51.446;8.360;2023-09-08T11:05:04;7.18;;;2.65;;
74421;SDS011;62856;51.446;8.360;2023-09-08T11:07:32;7.40;;;2.78;;
74421;SDS011;62856;51.446;8.360;2023-09-08T11:09:59;6.93;;;2.88;;
74421;SDS011;62856;51.446;8.360;2023-09-08T11:12:28;9.02;;;2.95;;
74421;SDS011;62856;51.446;8.360;2023-09-08T11:14:54;7.82;;;2.85;;
74421;SDS011;62856;51.446;8.360;2023-09-08T11:17:20;7.28;;;2.97;;
74421;SDS011;62856;51.446;8.360;2023-09-08T11:19:46;7.80;;;3.05;;
74421;SDS011;62856;51.446;8.360;2023-09-08T11:22:12;8.07;;;2.70;;
74421;SDS011;62856;51.446;8.360;2023-09-08T11:24:38;6.22;;;2.70;;
74421;SDS011;62856;51.446;8.360;2023-09-08T11:27:06;7.00;;;2.85;;
74421;SDS011;62856;51.446;8.360;2023-09-08T11:29:31;8.13;;;2.75;;
74421;SDS011;62856;51.446;8.360;2023-09-08T11:31:57;7.68;;;2.85;;
74421;SDS011;62856;51.446;8.360;2023-09-08T11:34:23;6.50;;;2.67;;
74421;SDS011;62856;51.446;8.360;2023-09-08T11:36:48;7.03;;;2.50;;
74421;SDS011;62856;51.446;8.360;2023-09-08T11:39:14;7.80;;;3.17;;
74421;SDS011;62856;51.446;8.360;2023-09-08T11:41:40;7.43;;;2.80;;
74421;SDS011;62856;51.446;8.360;2023-09-08T11:44:05;7.85;;;3.00;;
74421;SDS011;62856;51.446;8.360;2023-09-08T11:46:30;7.47;;;3.40;;
74421;SDS011;62856;51.446;8.360;2023-09-08T11:48:56;6.78;;;2.80;;
74421;SDS011;62856;51.446;8.360;2023-09-08T11:51:25;7.65;;;3.00;;
74421;SDS011;62856;51.446;8.360;2023-09-08T11:53:52;7.00;;;3.10;;
74421;SDS011;62856;51.446;8.360;2023-09-08T11:56:18;6.93;;;2.95;;
74421;SDS011;62856;51.446;8.360;2023-09-08T11:58:43;7.03;;;2.88;;
74421;SDS011;62856;51.446;8.360;2023-09-08T12:01:10;7.00;;;2.70;;
74421;SDS011;62856;51.446;8.360;2023-09-08T12:03:35;7.97;;;2.85;;
74421;SDS011;62856;51.446;8.360;2023-09-08T12:06:16;7.15;;;2.80;;
74421;SDS011;62856;51.446;8.360;2023-09-08T12:08:42;7.88;;;3.05;;
74421;SDS011;62856;51.446;8.360;2023-09-08T12:11:09;7.10;;;2.80;;
74421;SDS011;62856;51.446;8.360;2023-09-08T12:13:34;7.00;;;2.78;;
74421;SDS011;62856;51.446;8.360;2023-09-08T12:16:00;6.55;;;2.60;;
74421;SDS011;62856;51.446;8.360;2023-09-08T12:18:38;7.32;;;2.80;;
74421;SDS011;62856;51.446;8.360;2023-09-08T12:21:04;7.00;;;2.60;;
74421;SDS011;62856;51.446;8.360;2023-09-08T12:23:30;6.13;;;2.47;;
74421;SDS011;62856;51.446;8.360;2023-09-08T12:25:56;8.95;;;2.88;;
74421;SDS011;62856;51.446;8.360;2023-09-08T12:28:22;7.13;;;2.60;;
74421;SDS011;62856;51.446;8.360;2023-09-08T12:30:48;7.65;;;2.70;;
74421;SDS011;62856;51.446;8.360;2023-09-08T12:33:14;7.10;;;2.78;;
74421;SDS011;62856;51.446;8.360;2023-09-08T12:35:42;6.35;;;2.28;;
74421;SDS011;62856;51.446;8.360;2023-09-08T12:38:09;7.55;;;2.47;;
74421;SDS011;62856;51.446;8.360;2023-09-08T12:40:35;6.82;;;2.75;;
74421;SDS011;62856;51.446;8.360;2023-09-08T12:45:27;6.72;;;2.63;;
74421;SDS011;62856;51.446;8.360;2023-09-08T12:47:53;5.82;;;2.30;;
74421;SDS011;62856;51.446;8.360;2023-09-08T12:50:23;6.43;;;2.30;;
74421;SDS011;62856;51.446;8.360;2023-09-08T12:52:48;7.75;;;2.50;;
74421;SDS011;62856;51.446;8.360;2023-09-08T12:55:13;7.32;;;2.90;;
74421;SDS011;62856;51.446;8.360;2023-09-08T12:57:39;6.30;;;2.35;;
74421;SDS011;62856;51.446;8.360;2023-09-08T13:00:05;7.18;;;2.63;;
74421;SDS011;62856;51.446;8.360;2023-09-08T13:02:31;6.35;;;2.35;;
74421;SDS011;62856;51.446;8.360;2023-09-08T13:04:56;6.72;;;2.58;;
74421;SDS011;62856;51.446;8.360;2023-09-08T13:07:22;6.95;;;2.53;;
74421;SDS011;62856;51.446;8.360;2023-09-08T13:09:48;8.00;;;2.25;;
74421;SDS011;62856;51.446;8.360;2023-09-08T13:12:13;5.82;;;2.15;;
74421;SDS011;62856;51.446;8.360;2023-09-08T13:14:39;7.18;;;2.50;;
74421;SDS011;62856;51.446;8.360;2023-09-08T13:17:05;6.63;;;2.45;;
74421;SDS011;62856;51.446;8.360;2023-09-08T13:19:31;8.07;;;2.63;;
74421;SDS011;62856;51.446;8.360;2023-09-08T13:21:57;6.10;;;2.45;;
74421;SDS011;62856;51.446;8.360;2023-09-08T13:24:22;7.93;;;2.25;;
74421;SDS011;62856;51.446;8.360;2023-09-08T13:26:48;8.05;;;2.50;;
74421;SDS011;62856;51.446;8.360;2023-09-08T13:29:13;6.10;;;2.42;;
74421;SDS011;62856;51.446;8.360;2023-09-08T13:31:39;6.80;;;2.58;;
74421;SDS011;62856;51.446;8.360;2023-09-08T13:34:05;7.20;;;2.63;;
74421;SDS011;62856;51.446;8.360;2023-09-08T13:36:30;6.18;;;2.20;;
74421;SDS011;62856;51.446;8.360;2023-09-08T13:38:56;7.05;;;2.63;;
74421;SDS011;62856;51.446;8.360;2023-09-08T13:41:21;7.28;;;2.92;;
74421;SDS011;62856;51.446;8.360;2023-09-08T13:43:46;6.78;;;2.00;;
74421;SDS011;62856;51.446;8.360;2023-09-08T13:46:12;6.68;;;2.67;;
74421;SDS011;62856;51.446;8.360;2023-09-08T13:48:37;6.53;;;2.45;;
74421;SDS011;62856;51.446;8.360;2023-09-08T13:51:02;6.60;;;2.60;;
74421;SDS011;62856;51.446;8.360;2023-09-08T13:53:28;7.50;;;2.65;;
74421;SDS011;62856;51.446;8.360;2023-09-08T13:55:55;6.18;;;2.67;;
74421;SDS011;62856;51.446;8.360;2023-09-08T13:58:21;6.43;;;2.70;;
74421;SDS011;62856;51.446;8.360;2023-09-08T14:06:50;7.18;;;2.85;;
74421;SDS011;62856;51.446;8.360;2023-09-08T14:09:15;7.53;;;2.53;;
74421;SDS011;62856;51.446;8.360;2023-09-08T14:11:41;6.97;;;2.47;;
74421;SDS011;62856;51.446;8.360;2023-09-08T14:14:06;6.63;;;2.30;;
74421;SDS011;62856;51.446;8.360;2023-09-08T14:16:32;6.75;;;2.70;;
74421;SDS011;62856;51.446;8.360;2023-09-08T14:18:57;6.63;;;2.15;;
74421;SDS011;62856;51.446;8.360;2023-09-08T14:21:22;7.35;;;2.60;;
74421;SDS011;62856;51.446;8.360;2023-09-08T14:23:48;6.65;;;2.58;;
74421;SDS011;62856;51.446;8.360;2023-09-08T14:26:13;7.33;;;2.60;;
74421;SDS011;62856;51.446;8.360;2023-09-08T14:28:38;6.05;;;2.38;;
74421;SDS011;62856;51.446;8.360;2023-09-08T14:31:04;7.28;;;2.58;;
74421;SDS011;62856;51.446;8.360;2023-09-08T14:33:29;6.18;;;2.40;;
74421;SDS011;62856;51.446;8.360;2023-09-08T14:35:55;8.55;;;3.20;;
74421;SDS011;62856;51.446;8.360;2023-09-08T14:38:21;6.20;;;2.30;;
74421;SDS011;62856;51.446;8.360;2023-09-08T14:40:56;7.47;;;2.70;;
74421;SDS011;62856;51.446;8.360;2023-09-08T14:43:23;6.63;;;2.47;;
74421;SDS011;62856;51.446;8.360;2023-09-08T14:45:49;8.90;;;2.33;;
74421;SDS011;62856;51.446;8.360;2023-09-08T14:48:15;6.85;;;2.53;;
74421;SDS011;62856;51.446;8.360;2023-09-08T14:50:40;7.17;;;2.50;;
74421;SDS011;62856;51.446;8.360;2023-09-08T14:53:05;5.03;;;2.13;;
74421;SDS011;62856;51.446;8.360;2023-09-08T14:55:31;7.43;;;2.53;;
74421;SDS011;62856;51.446;8.360;2023-09-08T14:57:57;6.53;;;2.55;;
74421;SDS011;62856;51.446;8.360;2023-09-08T15:00:23;7.85;;;2.47;;
74421;SDS011;62856;51.446;8.360;2023-09-08T15:02:48;6.80;;;2.80;;
74421;SDS011;62856;51.446;8.360;2023-09-08T15:05:13;7.15;;;2.50;;
74421;SDS011;62856;51.446;8.360;2023-09-08T15:07:39;7.25;;;2.45;;